createdAt,value
2016-04-09T00:00:04.318Z,59.11
2016-04-09T00:01:01.336Z,59.3
2016-04-09T00:02:01.292Z,59.3
2016-04-09T00:03:01.310Z,59.01
2016-04-09T00:04:00.906Z,59.49
2016-04-09T00:05:00.925Z,59.2
2016-04-09T00:06:00.927Z,59.68
2016-04-09T00:07:00.914Z,59.49
2016-04-09T00:08:00.901Z,59.68
2016-04-09T00:09:00.889Z,59.87
2016-04-09T00:10:00.892Z,60.06
2016-04-09T00:11:00.894Z,59.96
2016-04-09T00:12:00.897Z,59.87
2016-04-09T00:13:00.899Z,59.87
2016-04-09T00:14:00.902Z,59.58
2016-04-09T00:15:00.889Z,59.2
2016-04-09T00:16:00.877Z,59.2
2016-04-09T00:17:00.879Z,59.11
2016-04-09T00:18:00.882Z,59.49
2016-04-09T00:19:00.884Z,59.58
2016-04-09T00:20:00.871Z,59.39
2016-04-09T00:21:00.858Z,59.49
2016-04-09T00:22:00.877Z,59.39
2016-04-09T00:23:00.864Z,58.92
2016-04-09T00:24:00.866Z,58.92
2016-04-09T00:25:00.854Z,59.3
2016-04-09T00:26:00.840Z,58.83
2016-04-09T00:27:00.859Z,59.3
2016-04-09T00:28:00.846Z,58.83
2016-04-09T00:29:00.848Z,59.01
2016-04-09T00:30:01.132Z,59.01
2016-04-09T00:31:00.853Z,58.54
2016-04-09T00:32:00.840Z,58.44
2016-04-09T00:33:00.859Z,59.01
2016-04-09T00:34:00.830Z,58.92
2016-04-09T00:35:00.833Z,58.92
2016-04-09T00:36:00.820Z,58.73
2016-04-09T00:37:00.839Z,58.92
2016-04-09T00:38:00.826Z,59.01
2016-04-09T00:39:00.813Z,58.83
2016-04-09T00:40:00.816Z,58.83
2016-04-09T00:41:00.818Z,58.92
2016-04-09T00:42:00.821Z,58.85
2016-04-09T00:43:00.824Z,58.85
2016-04-09T00:44:00.827Z,58.54
2016-04-09T00:45:00.814Z,58.44
2016-04-09T00:46:00.801Z,58.35
2016-04-09T00:47:00.788Z,58.35
2016-04-09T00:48:00.822Z,58.06
2016-04-09T00:49:00.793Z,58
2016-04-09T00:50:00.796Z,57.97
2016-04-09T00:51:00.783Z,57.87
2016-04-09T00:52:00.801Z,57.59
2016-04-09T00:53:00.788Z,57.5
2016-04-09T00:54:00.790Z,57.87
2016-04-09T00:55:00.793Z,57.59
2016-04-09T00:56:00.780Z,57.62
2016-04-09T00:57:00.782Z,57.78
2016-04-09T00:58:00.786Z,57.68
2016-04-09T00:59:00.773Z,57.5
2016-04-09T01:00:00.776Z,57.59
2016-04-09T01:01:03.779Z,57.5
2016-04-09T01:02:00.765Z,57.5
2016-04-09T01:03:00.987Z,57.59
2016-04-09T01:04:00.770Z,57.5
2016-04-09T01:05:00.758Z,57.3
2016-04-09T01:06:00.776Z,57.43
2016-04-09T01:07:00.747Z,56.83
2016-04-09T01:08:00.766Z,56.92
2016-04-09T01:09:00.752Z,57.3
2016-04-09T01:10:00.755Z,56.83
2016-04-09T01:11:00.758Z,56.83
2016-04-09T01:12:00.745Z,56.83
2016-04-09T01:13:00.764Z,56.83
2016-04-09T01:14:00.751Z,56.92
2016-04-09T01:15:00.753Z,56.63
2016-04-09T01:16:00.741Z,56.92
2016-04-09T01:17:00.727Z,56.83
2016-04-09T01:18:00.793Z,56.63
2016-04-09T01:19:00.733Z,57.02
2016-04-09T01:20:00.735Z,56.83
2016-04-09T01:21:00.723Z,56.83
2016-04-09T01:22:00.725Z,56.83
2016-04-09T01:23:00.728Z,57.11
2016-04-09T01:24:00.716Z,57.02
2016-04-09T01:25:00.718Z,56.83
2016-04-09T01:26:00.721Z,57.02
2016-04-09T01:27:00.707Z,57.11
2016-04-09T01:28:00.710Z,57.59
2016-04-09T01:29:00.713Z,57.5
2016-04-09T01:30:00.762Z,57.3
2016-04-09T01:31:00.703Z,57.4
2016-04-09T01:32:00.705Z,57.4
2016-04-09T01:33:00.754Z,57.3
2016-04-09T01:34:00.711Z,57.78
2016-04-09T01:35:00.698Z,57.68
2016-04-09T01:36:00.685Z,57.68
2016-04-09T01:37:00.694Z,58.06
2016-04-09T01:38:00.681Z,58.06
2016-04-09T01:39:00.684Z,58.25
2016-04-09T01:40:00.686Z,58.63
2016-04-09T01:41:00.673Z,58.35
2016-04-09T01:42:00.676Z,58.63
2016-04-09T01:43:00.662Z,58.35
2016-04-09T01:44:00.665Z,58.44
2016-04-09T01:45:00.667Z,58.44
2016-04-09T01:46:00.670Z,58.25
2016-04-09T01:47:00.673Z,58.83
2016-04-09T01:48:00.708Z,58.83
2016-04-09T01:49:00.664Z,59.3
2016-04-09T01:50:00.651Z,59.3
2016-04-09T01:51:00.653Z,59.11
2016-04-09T01:52:00.656Z,59.49
2016-04-09T01:53:00.642Z,59.3
2016-04-09T01:54:00.645Z,59.11
2016-04-09T01:55:00.633Z,59.49
2016-04-09T01:56:00.635Z,59.39
2016-04-09T01:57:00.653Z,59.96
2016-04-09T01:58:00.640Z,59.77
2016-04-09T01:59:00.643Z,59.87
2016-04-09T02:00:00.646Z,59.39
2016-04-09T02:01:00.649Z,59.49
2016-04-09T02:02:00.636Z,59.96
2016-04-09T02:03:00.748Z,59.96
2016-04-09T02:04:00.626Z,59.77
2016-04-09T02:05:00.612Z,60.16
2016-04-09T02:06:00.631Z,60.06
2016-04-09T02:07:00.618Z,60.16
2016-04-09T02:08:00.620Z,60.06
2016-04-09T02:09:00.623Z,60.25
2016-04-09T02:10:00.609Z,59.87
2016-04-09T02:11:00.659Z,59.87
2016-04-09T02:12:00.693Z,60.16
2016-04-09T02:13:00.603Z,60.44
2016-04-09T02:14:00.589Z,59.96
2016-04-09T02:15:00.593Z,60.06
2016-04-09T02:16:00.595Z,60.35
2016-04-09T02:17:00.582Z,60.44
2016-04-09T02:18:00.617Z,60.16
2016-04-09T02:19:00.587Z,60.16
2016-04-09T02:20:00.590Z,60.03
2016-04-09T02:21:00.592Z,60.88
2016-04-09T02:22:00.580Z,60.69
2016-04-09T02:23:00.583Z,60.98
2016-04-09T02:24:00.586Z,61.07
2016-04-09T02:25:00.573Z,61.36
2016-04-09T02:26:00.591Z,61.26
2016-04-09T02:27:00.578Z,61.26
2016-04-09T02:28:00.566Z,61.55
2016-04-09T02:29:00.568Z,61.17
2016-04-09T02:30:00.571Z,61.83
2016-04-09T02:31:00.557Z,62.12
2016-04-09T02:32:00.544Z,62.02
2016-04-09T02:33:00.593Z,62.21
2016-04-09T02:34:00.549Z,62.21
2016-04-09T02:35:00.537Z,62.12
2016-04-09T02:36:00.539Z,62.12
2016-04-09T02:37:00.542Z,61.83
2016-04-09T02:38:00.545Z,62.12
2016-04-09T02:39:00.532Z,62.12
2016-04-09T02:40:00.535Z,61.83
2016-04-09T02:41:00.538Z,62.12
2016-04-09T02:42:00.524Z,61.65
2016-04-09T02:43:00.527Z,62.12
2016-04-09T02:44:00.529Z,61.55
2016-04-09T02:45:00.517Z,61.65
2016-04-09T02:46:00.520Z,61.26
2016-04-09T02:47:00.506Z,61.26
2016-04-09T02:48:00.509Z,61.36
2016-04-09T02:49:00.512Z,61.36
2016-04-09T02:50:00.515Z,61.26
2016-04-09T02:51:00.502Z,61.45
2016-04-09T02:52:00.505Z,61.55
2016-04-09T02:53:00.492Z,61.74
2016-04-09T02:54:00.525Z,61.36
2016-04-09T02:55:00.528Z,61.45
2016-04-09T02:56:00.483Z,61.93
2016-04-09T02:57:00.502Z,61.55
2016-04-09T02:58:00.489Z,61.36
2016-04-09T02:59:00.491Z,61.26
2016-04-09T03:00:00.511Z,61.26
2016-04-09T03:01:00.482Z,61.36
2016-04-09T03:02:00.485Z,61.45
2016-04-09T03:03:00.518Z,61.36
2016-04-09T03:04:00.474Z,61.45
2016-04-09T03:05:00.477Z,61.74
2016-04-09T03:06:00.495Z,61.17
2016-04-09T03:07:00.466Z,61.36
2016-04-09T03:08:00.454Z,61.07
2016-04-09T03:09:00.456Z,60.69
2016-04-09T03:10:00.459Z,60.69
2016-04-09T03:11:00.446Z,61.36
2016-04-09T03:12:00.448Z,61.36
2016-04-09T03:13:00.451Z,61.65
2016-04-09T03:14:00.439Z,61.45
2016-04-09T03:15:00.442Z,61.36
2016-04-09T03:16:00.445Z,61.83
2016-04-09T03:17:00.431Z,62.21
2016-04-09T03:18:00.465Z,62.12
2016-04-09T03:19:00.420Z,62.12
2016-04-09T03:20:00.439Z,62.02
2016-04-09T03:21:00.442Z,61.36
2016-04-09T03:22:00.428Z,61.36
2016-04-09T03:23:00.431Z,61.93
2016-04-09T03:24:00.418Z,62.12
2016-04-09T03:25:00.421Z,62.4
2016-04-09T03:26:00.408Z,62.69
2016-04-09T03:27:00.411Z,62.59
2016-04-09T03:28:00.414Z,62.59
2016-04-09T03:29:00.416Z,62.12
2016-04-09T03:30:00.403Z,62.02
2016-04-09T03:31:00.422Z,61.17
2016-04-09T03:32:00.393Z,61.26
2016-04-09T03:33:00.396Z,61.55
2016-04-09T03:34:00.383Z,61.26
2016-04-09T03:35:00.385Z,60.79
2016-04-09T03:36:00.405Z,60.88
2016-04-09T03:37:00.407Z,60.88
2016-04-09T03:38:00.379Z,60.6
2016-04-09T03:39:00.382Z,60.6
2016-04-09T03:40:00.368Z,60.69
2016-04-09T03:41:00.371Z,60.98
2016-04-09T03:42:00.373Z,61.1
2016-04-09T03:43:00.376Z,61.45
2016-04-09T03:44:00.379Z,61.36
2016-04-09T03:45:00.381Z,61.39
2016-04-09T03:46:00.384Z,61.55
2016-04-09T03:47:00.370Z,61.29
2016-04-09T03:48:00.373Z,61.2
2016-04-09T03:49:00.376Z,61.26
2016-04-09T03:50:00.379Z,61.2
2016-04-09T03:51:00.351Z,61.58
2016-04-09T03:52:00.337Z,61.39
2016-04-09T03:53:00.340Z,61.29
2016-04-09T03:54:00.342Z,61.1
2016-04-09T03:55:00.330Z,60.72
2016-04-09T03:56:00.333Z,60.82
2016-04-09T03:57:00.335Z,61.29
2016-04-09T03:58:00.322Z,61.2
2016-04-09T03:59:00.324Z,60.91
2016-04-09T04:00:00.327Z,60.25
2016-04-09T04:01:00.315Z,60.63
2016-04-09T04:02:00.318Z,60.72
2016-04-09T04:03:00.321Z,61.39
2016-04-09T04:04:00.324Z,61.29
2016-04-09T04:05:00.326Z,62.15
2016-04-09T04:06:00.313Z,61.96
2016-04-09T04:07:00.316Z,62.24
2016-04-09T04:08:00.334Z,61.87
2016-04-09T04:09:00.305Z,62.15
2016-04-09T04:10:00.307Z,62.15
2016-04-09T04:11:00.326Z,62.05
2016-04-09T04:12:00.298Z,61.87
2016-04-09T04:13:00.301Z,62.24
2016-04-09T04:14:00.304Z,62.15
2016-04-09T04:15:00.306Z,62.15
2016-04-09T04:16:00.293Z,62.53
2016-04-09T04:17:00.279Z,62.15
2016-04-09T04:18:00.282Z,62.62
2016-04-09T04:19:00.285Z,62.72
2016-04-09T04:20:00.287Z,62.34
2016-04-09T04:21:00.290Z,62.05
2016-04-09T04:22:00.277Z,62.43
2016-04-09T04:23:00.264Z,62.15
2016-04-09T04:24:00.267Z,62.24
2016-04-09T04:25:00.269Z,62.24
2016-04-09T04:26:00.273Z,62.24
2016-04-09T04:27:00.260Z,62.62
2016-04-09T04:28:00.263Z,61.87
2016-04-09T04:29:00.266Z,62.15
2016-04-09T04:30:00.253Z,61.68
2016-04-09T04:31:00.255Z,62.15
2016-04-09T04:32:00.258Z,62.34
2016-04-09T04:33:00.244Z,62.15
2016-04-09T04:34:00.263Z,62.15
2016-04-09T04:35:00.249Z,62.62
2016-04-09T04:36:00.252Z,62.53
2016-04-09T04:37:00.240Z,62.43
2016-04-09T04:38:00.242Z,62.43
2016-04-09T04:39:00.246Z,61.96
2016-04-09T04:40:00.232Z,62.15
2016-04-09T04:41:00.235Z,61.77
2016-04-09T04:42:00.222Z,61.58
2016-04-09T04:43:00.224Z,61.29
2016-04-09T04:44:00.227Z,60.63
2016-04-09T04:45:00.229Z,60.35
2016-04-09T04:46:00.217Z,58.73
2016-04-09T04:47:00.235Z,57.5
2016-04-09T04:48:00.222Z,56.83
2016-04-09T04:49:00.225Z,56.54
2016-04-09T04:50:00.228Z,56.63
2016-04-09T04:51:00.215Z,56.92
2016-04-09T04:52:00.203Z,56.63
2016-04-09T04:53:00.205Z,56.92
2016-04-09T04:54:00.192Z,56.45
2016-04-09T04:55:00.194Z,56.16
2016-04-09T04:56:00.197Z,56.26
2016-04-09T04:57:00.184Z,56.45
2016-04-09T04:58:00.186Z,55.88
2016-04-09T04:59:00.205Z,55.3
2016-04-09T05:00:00.192Z,55.02
2016-04-09T05:01:00.179Z,55.21
2016-04-09T05:02:00.167Z,56.35
2016-04-09T05:03:00.185Z,56.92
2016-04-09T05:04:00.172Z,56.83
2016-04-09T05:05:00.175Z,57.3
2016-04-09T05:06:00.193Z,56.83
2016-04-09T05:07:00.164Z,57.21
2016-04-09T05:08:00.166Z,57.78
2016-04-09T05:09:00.169Z,57.68
2016-04-09T05:10:00.172Z,57.4
2016-04-09T05:11:00.174Z,57.59
2016-04-09T05:12:00.162Z,57.5
2016-04-09T05:13:00.148Z,57.5
2016-04-09T05:14:00.167Z,56.83
2016-04-09T05:15:00.154Z,56.45
2016-04-09T05:16:00.157Z,56.63
2016-04-09T05:17:00.160Z,57.02
2016-04-09T05:18:00.147Z,56.83
2016-04-09T05:19:00.150Z,56.83
2016-04-09T05:20:00.152Z,56.83
2016-04-09T05:21:00.139Z,56.35
2016-04-09T05:22:00.142Z,56.26
2016-04-09T05:23:00.145Z,56.83
2016-04-09T05:24:00.131Z,56.45
2016-04-09T05:25:00.135Z,56.35
2016-04-09T05:26:00.122Z,56.63
2016-04-09T05:27:00.125Z,56.63
2016-04-09T05:28:00.128Z,56.54
2016-04-09T05:29:00.130Z,56.16
2016-04-09T05:30:00.117Z,56.35
2016-04-09T05:31:00.119Z,56.16
2016-04-09T05:32:00.122Z,56.73
2016-04-09T05:33:00.109Z,56.73
2016-04-09T05:34:00.111Z,56.26
2016-04-09T05:35:00.114Z,56.16
2016-04-09T05:36:00.116Z,55.78
2016-04-09T05:37:00.104Z,56.07
2016-04-09T05:38:00.107Z,55.97
2016-04-09T05:39:00.110Z,55.69
2016-04-09T05:40:00.097Z,55.69
2016-04-09T05:41:00.099Z,55.69
2016-04-09T05:42:00.102Z,55.21
2016-04-09T05:43:00.104Z,55.4
2016-04-09T05:44:00.092Z,55.78
2016-04-09T05:45:00.095Z,55.59
2016-04-09T05:46:00.081Z,55.88
2016-04-09T05:47:00.084Z,55.88
2016-04-09T05:48:00.086Z,55.5
2016-04-09T05:49:00.073Z,55.88
2016-04-09T05:50:00.076Z,56.07
2016-04-09T05:51:00.079Z,56.16
2016-04-09T05:52:00.066Z,55.97
2016-04-09T05:53:00.069Z,55.88
2016-04-09T05:54:00.072Z,55.21
2016-04-09T05:55:00.075Z,54.55
2016-04-09T05:56:00.061Z,53.97
2016-04-09T05:57:00.065Z,53.5
2016-04-09T05:58:00.067Z,53.97
2016-04-09T05:59:00.054Z,54.55
2016-04-09T06:00:00.056Z,55.02
2016-04-09T06:01:00.059Z,54.93
2016-04-09T06:02:00.047Z,55.02
2016-04-09T06:03:00.049Z,54.64
2016-04-09T06:04:00.052Z,55.02
2016-04-09T06:05:00.038Z,55.11
2016-04-09T06:06:00.041Z,54.93
2016-04-09T06:07:00.044Z,55.11
2016-04-09T06:08:00.047Z,54.83
2016-04-09T06:09:00.035Z,55.3
2016-04-09T06:10:00.052Z,55.21
2016-04-09T06:11:00.024Z,55.69
2016-04-09T06:12:00.026Z,55.88
2016-04-09T06:13:00.029Z,56.16
2016-04-09T06:14:00.032Z,55.97
2016-04-09T06:15:00.018Z,55.97
2016-04-09T06:16:00.022Z,55.69
2016-04-09T06:17:00.024Z,56.07
2016-04-09T06:18:00.012Z,56.35
2016-04-09T06:19:00.030Z,56.16
2016-04-09T06:20:00.017Z,56.45
2016-04-09T06:21:00.019Z,55.88
2016-04-09T06:22:00.006Z,55.69
2016-04-09T06:23:00.025Z,55.97
2016-04-09T06:23:59.995Z,55.59
2016-04-09T06:24:59.998Z,55.69
2016-04-09T06:26:00.002Z,55.69
2016-04-09T06:27:00.004Z,55.78
2016-04-09T06:27:59.992Z,55.59
2016-04-09T06:28:59.994Z,55.69
2016-04-09T06:29:59.997Z,55.21
2016-04-09T06:31:00.000Z,54.83
2016-04-09T06:31:59.971Z,55.02
2016-04-09T06:32:59.974Z,55.11
2016-04-09T06:33:59.976Z,55.4
2016-04-09T06:34:59.980Z,55.69
2016-04-09T06:35:59.982Z,55.78
2016-04-09T06:36:59.969Z,55.5
2016-04-09T06:37:59.206Z,55.11
2016-04-09T06:38:59.958Z,55.69
2016-04-09T06:39:59.961Z,55.4
2016-04-09T06:40:59.979Z,55.5
2016-04-09T06:41:59.967Z,55.4
2016-04-09T06:42:59.954Z,55.4
2016-04-09T06:43:59.957Z,55.21
2016-04-09T06:44:59.959Z,55.02
2016-04-09T06:45:59.946Z,55.21
2016-04-09T06:46:59.948Z,55.3
2016-04-09T06:47:59.951Z,55.21
2016-04-09T06:48:59.938Z,55.21
2016-04-09T06:49:59.941Z,55.21
2016-04-09T06:50:59.944Z,55.21
2016-04-09T06:51:59.931Z,54.93
2016-04-09T06:52:59.934Z,54.64
2016-04-09T06:53:59.230Z,54.83
2016-04-09T06:55:00.026Z,54.93
2016-04-09T06:56:00.058Z,54.93
2016-04-09T06:57:00.105Z,54.64
2016-04-09T06:58:00.152Z,53.88
2016-04-09T06:59:00.157Z,54.36
2016-04-09T07:00:00.190Z,54.26
2016-04-09T07:01:00.194Z,54.17
2016-04-09T07:02:00.196Z,54.17
2016-04-09T07:03:00.199Z,54.29
2016-04-09T07:04:00.224Z,54.17
2016-04-09T07:05:00.216Z,54.19
2016-04-09T07:06:00.224Z,54.19
2016-04-09T07:07:00.249Z,54
2016-04-09T07:08:00.226Z,54.77
2016-04-09T07:09:00.231Z,54.86
2016-04-09T07:10:00.236Z,55.15
2016-04-09T07:11:00.241Z,55.02
2016-04-09T07:12:00.230Z,55.5
2016-04-09T07:13:00.235Z,55.5
2016-04-09T07:14:00.222Z,55.3
2016-04-09T07:15:00.243Z,55.59
2016-04-09T07:16:00.230Z,55.02
2016-04-09T07:17:00.219Z,55.3
2016-04-09T07:18:00.237Z,54.29
2016-04-09T07:19:00.225Z,54.57
2016-04-09T07:20:00.228Z,54.19
2016-04-09T07:21:00.230Z,53.72
2016-04-09T07:22:00.217Z,53.91
2016-04-09T07:23:00.219Z,53.63
2016-04-09T07:24:00.207Z,53.24
2016-04-09T07:25:00.224Z,53.72
2016-04-09T07:26:00.227Z,53.72
2016-04-09T07:27:00.215Z,53.63
2016-04-09T07:28:00.233Z,52.96
2016-04-09T07:29:00.205Z,52.76
2016-04-09T07:30:00.223Z,53.75
2016-04-09T07:31:00.194Z,53.55
2016-04-09T07:32:00.243Z,53.65
2016-04-09T07:33:00.199Z,53.65
2016-04-09T07:34:00.202Z,54.03
2016-04-09T07:35:00.204Z,53.94
2016-04-09T07:36:00.192Z,54
2016-04-09T07:37:00.226Z,53.72
2016-04-09T07:38:00.197Z,53.65
2016-04-09T07:39:00.200Z,52.98
2016-04-09T07:40:00.203Z,52.61
2016-04-09T07:41:00.190Z,52.7
2016-04-09T07:42:00.192Z,52.61
2016-04-09T07:43:00.195Z,52.32
2016-04-09T07:44:00.182Z,52.61
2016-04-09T07:45:00.201Z,52.51
2016-04-09T07:46:00.188Z,52.51
2016-04-09T07:47:00.190Z,52.8
2016-04-09T07:48:00.193Z,52.8
2016-04-09T07:49:00.227Z,52.7
2016-04-09T07:50:00.183Z,52.03
2016-04-09T07:51:00.170Z,52.61
2016-04-09T07:52:00.188Z,52.51
2016-04-09T07:53:00.191Z,52.98
2016-04-09T07:54:00.177Z,52.8
2016-04-09T07:55:00.165Z,53.08
2016-04-09T07:56:00.168Z,52.98
2016-04-09T07:57:00.171Z,52.8
2016-04-09T07:58:00.188Z,52.51
2016-04-09T07:59:00.176Z,52.61
2016-04-09T08:00:00.179Z,52.03
2016-04-09T08:01:00.181Z,51.93
2016-04-09T08:02:00.184Z,52.13
2016-04-09T08:03:00.170Z,52.03
2016-04-09T08:04:00.189Z,51.84
2016-04-09T08:05:00.176Z,52.03
2016-04-09T08:06:00.179Z,51.93
2016-04-09T08:07:00.166Z,51.68
2016-04-09T08:08:00.168Z,50.82
2016-04-09T08:09:00.171Z,50.25
2016-04-09T08:10:00.159Z,50.54
2016-04-09T08:11:00.162Z,49.87
2016-04-09T08:12:00.164Z,49.96
2016-04-09T08:13:00.167Z,49.49
2016-04-09T08:14:00.170Z,49.11
2016-04-09T08:15:00.156Z,49.23
2016-04-09T08:16:00.159Z,49.32
2016-04-09T08:17:00.162Z,49.32
2016-04-09T08:18:00.164Z,49.3
2016-04-09T08:19:00.245Z,49.42
2016-04-09T08:20:00.154Z,49.42
2016-04-09T08:21:00.156Z,49.42
2016-04-09T08:22:00.159Z,49.8
2016-04-09T08:23:00.162Z,49.77
2016-04-09T08:24:00.150Z,49.87
2016-04-09T08:25:00.167Z,49.32
2016-04-09T08:26:00.155Z,48.47
2016-04-09T08:27:00.158Z,48.08
2016-04-09T08:28:00.160Z,47.8
2016-04-09T08:29:00.147Z,47.06
2016-04-09T08:30:00.165Z,47.06
2016-04-09T08:31:00.168Z,47.73
2016-04-09T08:32:00.171Z,47.8
2016-04-09T08:33:00.158Z,48.18
2016-04-09T08:34:00.145Z,48.37
2016-04-09T08:35:00.163Z,48.37
2016-04-09T08:36:00.165Z,48.08
2016-04-09T08:37:00.872Z,47.89
2016-04-09T08:38:00.171Z,47.82
2016-04-09T08:39:00.159Z,47.54
2016-04-09T08:40:00.161Z,46.97
2016-04-09T08:41:00.179Z,47.25
2016-04-09T08:42:00.167Z,46.94
2016-04-09T08:43:00.170Z,47.34
2016-04-09T08:44:00.156Z,47.44
2016-04-09T08:45:00.159Z,47.44
2016-04-09T08:46:00.178Z,47.34
2016-04-09T08:47:00.164Z,47.63
2016-04-09T08:48:00.167Z,47.54
2016-04-09T08:49:00.264Z,47.89
2016-04-09T08:50:00.173Z,47.63
2016-04-09T08:51:00.159Z,47.34
2016-04-09T08:52:00.162Z,47.06
2016-04-09T08:53:00.165Z,47.44
2016-04-09T08:54:00.183Z,47.34
2016-04-09T08:55:00.170Z,47.25
2016-04-09T08:56:00.173Z,46.87
2016-04-09T08:57:00.175Z,46.49
2016-04-09T08:58:00.178Z,46.39
2016-04-09T08:59:00.181Z,46.3
2016-04-09T09:00:00.168Z,46.01
2016-04-09T09:01:00.170Z,45.83
2016-04-09T09:02:00.174Z,45.73
2016-04-09T09:03:00.176Z,45.83
2016-04-09T09:04:00.226Z,46.11
2016-04-09T09:05:00.166Z,46.2
2016-04-09T09:06:00.185Z,46.11
2016-04-09T09:07:00.187Z,45.54
2016-04-09T09:08:00.191Z,45.35
2016-04-09T09:09:00.177Z,45.73
2016-04-09T09:10:00.196Z,46.01
2016-04-09T09:11:00.183Z,46.11
2016-04-09T09:12:00.186Z,45.92
2016-04-09T09:13:00.172Z,46.39
2016-04-09T09:14:00.191Z,46.39
2016-04-09T09:15:00.210Z,46.87
2016-04-09T09:16:00.180Z,46.87
2016-04-09T09:17:00.199Z,46.58
2016-04-09T09:18:00.185Z,46.49
2016-04-09T09:19:00.204Z,46.3
2016-04-09T09:20:00.238Z,45.83
2016-04-09T09:21:00.193Z,45.44
2016-04-09T09:22:00.181Z,45.08
2016-04-09T09:23:00.184Z,45.08
2016-04-09T09:24:00.187Z,44.99
2016-04-09T09:25:00.189Z,45.18
2016-04-09T09:26:00.192Z,45.08
2016-04-09T09:27:00.195Z,44.89
2016-04-09T09:28:00.197Z,45.08
2016-04-09T09:29:00.200Z,44.8
2016-04-09T09:30:00.203Z,44.89
2016-04-09T09:31:00.206Z,44.7
2016-04-09T09:32:00.208Z,44.04
2016-04-09T09:33:00.211Z,44.51
2016-04-09T09:34:00.229Z,46.04
2016-04-09T09:35:00.200Z,46.7
2016-04-09T09:36:00.203Z,44.42
2016-04-09T09:37:00.206Z,44.23
2016-04-09T09:38:00.208Z,43.75
2016-04-09T09:39:00.211Z,43.75
2016-04-09T09:40:00.214Z,44.04
2016-04-09T09:41:00.216Z,44.23
2016-04-09T09:42:00.204Z,44.42
2016-04-09T09:43:00.222Z,45.94
2016-04-09T09:44:00.209Z,46.51
2016-04-09T09:45:00.212Z,45.84
2016-04-09T09:46:00.215Z,45.08
2016-04-09T09:47:00.218Z,44.42
2016-04-09T09:48:00.220Z,44.15
2016-04-09T09:49:00.227Z,43.58
2016-04-09T09:50:01.452Z,43.39
2016-04-09T09:51:00.232Z,43.2
2016-04-09T09:52:00.578Z,43.39
2016-04-09T09:53:01.937Z,43.49
2016-04-09T09:54:00.237Z,43.29
2016-04-09T09:55:00.240Z,42.44
2016-04-09T09:56:00.227Z,42.53
2016-04-09T09:57:00.246Z,42.34
2016-04-09T09:58:00.232Z,41.69
2016-04-09T09:59:00.235Z,41.79
2016-04-09T10:00:00.221Z,42.17
2016-04-09T10:01:00.241Z,42.36
2016-04-09T10:02:00.259Z,42.46
2016-04-09T10:03:00.231Z,42.36
2016-04-09T10:04:00.265Z,42.36
2016-04-09T10:05:00.252Z,42.53
2016-04-09T10:06:00.239Z,42.53
2016-04-09T10:07:00.257Z,41.88
2016-04-09T10:08:00.261Z,41.6
2016-04-09T10:09:00.263Z,41.69
2016-04-09T10:10:00.266Z,41.88
2016-04-09T10:11:00.113Z,41.79
2016-04-09T10:12:00.271Z,41.69
2016-04-09T10:13:00.257Z,42.08
2016-04-09T10:14:00.260Z,41.88
2016-04-09T10:15:00.264Z,41.69
2016-04-09T10:16:00.297Z,42.27
2016-04-09T10:17:00.268Z,41.98
2016-04-09T10:18:00.272Z,41.22
2016-04-09T10:19:00.274Z,41.22
2016-04-09T10:20:00.277Z,41.03
2016-04-09T10:21:00.124Z,41.62
2016-04-09T10:22:00.282Z,40.76
2016-04-09T10:23:00.285Z,40.57
2016-04-09T10:24:00.287Z,41.81
2016-04-09T10:25:00.290Z,41.14
2016-04-09T10:26:00.293Z,40.66
2016-04-09T10:27:00.296Z,41.24
2016-04-09T10:28:00.299Z,40.76
2016-04-09T10:29:00.301Z,40.66
2016-04-09T10:30:00.303Z,40.86
2016-04-09T10:31:00.291Z,40.95
2016-04-09T10:32:00.356Z,40.74
2016-04-09T10:33:00.297Z,40.86
2016-04-09T10:34:00.314Z,40.19
2016-04-09T10:35:00.317Z,40.57
2016-04-09T10:36:00.305Z,40.47
2016-04-09T10:37:00.323Z,40.28
2016-04-09T10:38:00.311Z,40.47
2016-04-09T10:39:00.328Z,40.95
2016-04-09T10:40:00.330Z,42.57
2016-04-09T10:41:00.319Z,41.81
2016-04-09T10:42:00.321Z,41.81
2016-04-09T10:43:00.339Z,41.52
2016-04-09T10:44:00.327Z,41.24
2016-04-09T10:45:00.344Z,42
2016-04-09T10:46:00.175Z,41.33
2016-04-09T10:47:00.349Z,41.06
2016-04-09T10:48:00.352Z,41.35
2016-04-09T10:49:00.371Z,42.02
2016-04-09T10:50:00.343Z,42.5
2016-04-09T10:51:00.361Z,41.93
2016-04-09T10:52:00.348Z,41.45
2016-04-09T10:53:00.350Z,42.4
2016-04-09T10:54:00.368Z,43.15
2016-04-09T10:55:00.371Z,44.96
2016-04-09T10:56:00.359Z,44.1
2016-04-09T10:57:00.362Z,44.1
2016-04-09T10:58:00.364Z,45.82
2016-04-09T10:59:00.366Z,44.77
2016-04-09T11:00:00.384Z,45.15
2016-04-09T11:01:00.372Z,45.72
2016-04-09T11:02:00.390Z,44.87
2016-04-09T11:03:00.393Z,45.34
2016-04-09T11:04:00.396Z,46.48
2016-04-09T11:05:00.383Z,45.72
2016-04-09T11:06:00.385Z,45.53
2016-04-09T11:07:00.388Z,45.92
2016-04-09T11:08:00.406Z,44.41
2016-04-09T11:09:00.394Z,44.51
2016-04-09T11:10:00.396Z,44.41
2016-04-09T11:11:00.415Z,42.9
2016-04-09T11:12:00.401Z,41.95
2016-04-09T11:13:00.419Z,41.75
2016-04-09T11:14:00.407Z,41.85
2016-04-09T11:15:00.425Z,42.14
2016-04-09T11:16:00.413Z,43.4
2016-04-09T11:17:00.415Z,41.49
2016-04-09T11:18:00.418Z,41.3
2016-04-09T11:19:00.435Z,41.3
2016-04-09T11:20:00.423Z,41.97
2016-04-09T11:21:00.426Z,42.93
2016-04-09T11:22:00.429Z,42.61
2016-04-09T11:23:00.431Z,41.78
2016-04-09T11:24:00.449Z,41.49
2016-04-09T11:25:00.452Z,41.66
2016-04-09T11:26:00.471Z,42.43
2016-04-09T11:27:00.442Z,42.61
2016-04-09T11:28:00.445Z,42.35
2016-04-09T11:29:00.463Z,42.52
2016-04-09T11:30:00.465Z,42.9
2016-04-09T11:31:00.468Z,43.29
2016-04-09T11:32:00.456Z,44.72
2016-04-09T11:33:00.473Z,44.53
2016-04-09T11:34:00.476Z,45.01
2016-04-09T11:35:00.478Z,45.2
2016-04-09T11:36:00.482Z,44.81
2016-04-09T11:37:00.328Z,45.31
2016-04-09T11:38:00.502Z,45.03
2016-04-09T11:39:00.489Z,44.45
2016-04-09T11:40:00.492Z,44.62
2016-04-09T11:41:00.494Z,44.24
2016-04-09T11:42:00.497Z,44.43
2016-04-09T11:43:00.500Z,45.48
2016-04-09T11:44:00.503Z,44.91
2016-04-09T11:45:00.505Z,45.77
2016-04-09T11:46:00.508Z,44.53
2016-04-09T11:47:00.511Z,44.81
2016-04-09T11:48:00.513Z,46.25
2016-04-09T11:49:00.516Z,46.72
2016-04-09T11:50:00.519Z,45.96
2016-04-09T11:51:00.521Z,46.53
2016-04-09T11:52:00.524Z,46.63
2016-04-09T11:53:00.543Z,47.39
2016-04-09T11:54:00.529Z,48.35
2016-04-09T11:55:00.532Z,46.34
2016-04-09T11:56:00.535Z,45.39
2016-04-09T11:57:00.537Z,44.81
2016-04-09T11:58:00.540Z,45.01
2016-04-09T11:59:00.543Z,45.01
2016-04-09T12:00:00.546Z,43.66
2016-04-09T12:01:00.548Z,43.38
2016-04-09T12:02:00.551Z,42.9
2016-04-09T12:03:00.554Z,42.81
2016-04-09T12:04:00.556Z,42.52
2016-04-09T12:05:00.559Z,42.14
2016-04-09T12:06:00.562Z,41.75
2016-04-09T12:07:00.564Z,41.75
2016-04-09T12:08:00.567Z,43.19
2016-04-09T12:09:00.570Z,43.74
2016-04-09T12:10:00.572Z,43.29
2016-04-09T12:11:00.575Z,43.29
2016-04-09T12:12:00.578Z,42.79
2016-04-09T12:13:00.580Z,43.26
2016-04-09T12:14:00.583Z,43.36
2016-04-09T12:15:00.586Z,42.97
2016-04-09T12:16:00.589Z,42.4
2016-04-09T12:17:00.591Z,42.6
2016-04-09T12:18:00.594Z,42.81
2016-04-09T12:19:00.597Z,42.14
2016-04-09T12:20:00.599Z,41.55
2016-04-09T12:21:00.602Z,41.18
2016-04-09T12:22:00.605Z,41.64
2016-04-09T12:23:00.607Z,41.45
2016-04-09T12:24:00.626Z,41.74
2016-04-09T12:25:00.598Z,41.93
2016-04-09T12:26:00.615Z,42.24
2016-04-09T12:27:01.415Z,42.04
2016-04-09T12:28:00.902Z,41.56
2016-04-09T12:29:00.655Z,41.85
2016-04-09T12:30:00.626Z,42.02
2016-04-09T12:31:00.629Z,41.06
2016-04-09T12:32:00.632Z,41.35
2016-04-09T12:33:00.620Z,41.38
2016-04-09T12:34:00.623Z,41.55
2016-04-09T12:35:00.625Z,40.99
2016-04-09T12:36:00.628Z,41.06
2016-04-09T12:37:00.630Z,41.38
2016-04-09T12:38:00.633Z,41.35
2016-04-09T12:39:00.636Z,40.52
2016-04-09T12:40:00.654Z,40.49
2016-04-09T12:41:00.641Z,40.78
2016-04-09T12:42:00.658Z,41.35
2016-04-09T12:43:00.646Z,40.59
2016-04-09T12:44:00.649Z,40.69
2016-04-09T12:45:00.652Z,40.59
2016-04-09T12:46:00.655Z,41.45
2016-04-09T12:47:00.658Z,41.26
2016-04-09T12:48:00.660Z,41.26
2016-04-09T12:49:00.662Z,41.06
2016-04-09T12:50:00.680Z,41.26
2016-04-09T12:51:00.668Z,41.16
2016-04-09T12:52:00.671Z,41.74
2016-04-09T12:53:00.674Z,42.02
2016-04-09T12:54:00.677Z,40.88
2016-04-09T12:55:00.663Z,40.97